Time;durP1;ratioP1;P1;durP2;ratioP2;P2;SDS_P1;SDS_P2;PMS_P1;PMS_P2;Temp;Humidity;BMP_temperature;BMP_pressure;BME280_temperature;BME280_humidity;BME280_pressure;Samples;Min_cycle;Max_cycle;Signal;HPM_P1;HPM_P2
2023/03/16 00:01:18;;;;;;;2.43;2.13;;;-0.40;99.90;;;;;;7109243;19;20320;-82
2023/03/16 00:03:43;;;;;;;4.75;3.08;;;-0.40;99.90;;;;;;7148320;19;20336;-80
2023/03/16 00:06:09;;;;;;;7.75;5.07;;;-0.40;99.90;;;;;;7134410;19;20871;-91
2023/03/16 00:08:35;;;;;;;7.37;4.13;;;-0.40;99.90;;;;;;7083649;19;21018;-81
2023/03/16 00:11:01;;;;;;;3.83;3.10;;;-0.40;99.90;;;;;;7081667;19;20328;-84
2023/03/16 00:13:27;;;;;;;2.97;2.60;;;-0.30;99.90;;;;;;7167186;19;20301;-78
2023/03/16 00:16:03;;;;;;;3.13;2.80;;;-0.40;99.90;;;;;;7103062;19;20338;-78
2023/03/16 00:18:29;;;;;;;2.67;1.95;;;-0.30;99.90;;;;;;7129159;19;20381;-80
2023/03/16 00:20:57;;;;;;;2.33;2.08;;;-0.30;99.90;;;;;;7081223;19;20316;-77
2023/03/16 00:23:28;;;;;;;2.33;1.90;;;-0.30;99.90;;;;;;7081375;19;20324;-80
2023/03/16 00:25:57;;;;;;;2.28;1.95;;;-0.30;99.90;;;;;;7100628;19;20331;-79
2023/03/16 00:28:23;;;;;;;1.70;1.60;;;-0.40;99.90;;;;;;7149082;19;20472;-78
2023/03/16 00:30:49;;;;;;;2.83;1.85;;;-0.40;99.90;;;;;;7076983;19;20340;-83
2023/03/16 00:33:15;;;;;;;2.20;2.00;;;-0.30;99.90;;;;;;7098008;19;20353;-77
2023/03/16 00:35:49;;;;;;;3.63;2.10;;;-0.30;99.90;;;;;;7087984;19;20301;-90
2023/03/16 00:38:17;;;;;;;2.45;2.25;;;-0.30;99.90;;;;;;7100462;19;20335;-86
2023/03/16 00:40:44;;;;;;;2.38;1.83;;;-0.30;99.90;;;;;;7129938;19;20334;-91
2023/03/16 00:43:09;;;;;;;2.70;2.10;;;-0.30;99.90;;;;;;7139351;19;20862;-92
2023/03/16 00:45:35;;;;;;;2.53;1.77;;;-0.30;99.90;;;;;;7088450;19;20362;-94
2023/03/16 00:48:01;;;;;;;3.15;1.90;;;-0.40;99.90;;;;;;7097090;19;20329;-89
2023/03/16 00:50:27;;;;;;;4.20;1.83;;;-0.30;99.90;;;;;;7179852;19;20305;-88
2023/03/16 00:52:52;;;;;;;2.20;1.70;;;-0.40;99.90;;;;;;7096956;19;20356;-86
2023/03/16 00:55:19;;;;;;;2.15;1.90;;;-0.40;99.90;;;;;;7117388;19;20332;-88
2023/03/16 00:57:44;;;;;;;2.13;1.85;;;-0.40;99.90;;;;;;7129591;19;20353;-92
2023/03/16 01:00:11;;;;;;;2.60;2.00;;;-0.40;99.90;;;;;;7133897;19;20316;-87
2023/03/16 01:02:37;;;;;;;2.00;1.80;;;-0.50;99.90;;;;;;7095944;19;20328;-83
2023/03/16 01:05:04;;;;;;;2.90;1.80;;;-0.50;99.90;;;;;;7093860;19;20412;-88
2023/03/16 01:07:30;;;;;;;2.60;1.63;;;-0.50;99.90;;;;;;7102794;19;20325;-87
2023/03/16 01:09:57;;;;;;;3.08;2.00;;;-0.50;99.90;;;;;;7160336;19;20316;-86
2023/03/16 01:12:22;;;;;;;2.55;1.85;;;-0.60;99.90;;;;;;7096643;19;20322;-88
2023/03/16 01:14:48;;;;;;;3.78;1.80;;;-0.60;99.90;;;;;;7093854;19;20360;-84
2023/03/16 01:17:14;;;;;;;1.70;1.60;;;-0.70;99.90;;;;;;7112712;19;20427;-82
2023/03/16 01:19:41;;;;;;;2.83;1.70;;;-0.60;99.90;;;;;;7157898;19;20364;-90
2023/03/16 01:22:09;;;;;;;4.05;3.10;;;-0.60;99.90;;;;;;7135213;19;20772;-87
2023/03/16 01:24:35;;;;;;;4.23;2.50;;;-0.60;99.90;;;;;;7129302;19;20345;-89
2023/03/16 01:27:01;;;;;;;2.97;2.10;;;-0.70;99.90;;;;;;7117688;19;20424;-87
2023/03/16 01:29:26;;;;;;;4.00;2.00;;;-0.70;99.90;;;;;;7197832;19;20316;-83
2023/03/16 01:31:55;;;;;;;1.67;1.58;;;-0.60;99.90;;;;;;7136119;19;20365;-88
2023/03/16 01:34:21;;;;;;;2.05;1.83;;;-0.70;99.90;;;;;;7096362;19;20333;-87
2023/03/16 01:36:47;;;;;;;2.00;1.80;;;-0.70;99.90;;;;;;7152102;19;20331;-87
2023/03/16 01:39:13;;;;;;;4.05;1.65;;;-0.70;99.90;;;;;;7159727;19;20380;-84
2023/03/16 01:41:43;;;;;;;3.20;1.88;;;-0.70;99.90;;;;;;7095161;19;20301;-89
2023/03/16 01:44:13;;;;;;;1.50;1.40;;;-0.70;99.90;;;;;;7095084;19;20316;-88
2023/03/16 01:46:40;;;;;;;2.90;1.60;;;-0.80;99.90;;;;;;7095446;19;20321;-85
2023/03/16 01:49:11;;;;;;;2.07;1.50;;;-0.80;99.90;;;;;;7169252;19;20329;-86
2023/03/16 01:51:52;;;;;;;4.25;1.60;;;-0.80;99.90;;;;;;7169765;19;20994;-76
2023/03/16 01:54:27;;;;;;;2.72;1.65;;;-0.80;99.90;;;;;;6991440;19;2004181;-92
2023/03/16 01:57:13;;;;;;;1.60;1.50;;;-0.90;99.90;;;;;;7096575;19;20387;-91
2023/03/16 01:59:47;;;;;;;2.53;1.35;;;-0.90;99.90;;;;;;7125057;19;20332;-88
2023/03/16 02:02:13;;;;;;;2.08;1.50;;;-0.90;99.90;;;;;;7090217;19;20384;-90
2023/03/16 02:04:41;;;;;;;2.00;1.70;;;-0.90;99.90;;;;;;7113511;19;20384;-88
2023/03/16 02:07:08;;;;;;;1.95;1.55;;;-0.90;99.90;;;;;;7109782;19;20824;-87
2023/03/16 02:09:38;;;;;;;1.40;1.30;;;-1.00;99.90;;;;;;7147080;19;20310;-86
2023/03/16 02:12:04;;;;;;;2.20;1.60;;;-1.00;99.90;;;;;;7094815;19;20340;-86
2023/03/16 02:14:31;;;;;;;1.40;1.30;;;-1.00;99.90;;;;;;7135718;19;20966;-88
2023/03/16 02:16:57;;;;;;;2.50;1.40;;;-1.00;99.90;;;;;;7133842;19;20361;-84
2023/03/16 02:20:15;;;;;;;1.67;1.58;;;-1.00;99.90;;;;;;7144426;19;20327;-89
2023/03/16 02:22:43;;;;;;;1.70;1.50;;;-1.00;99.90;;;;;;6888925;19;2004428;-86
2023/03/16 02:25:09;;;;;;;4.18;1.77;;;-1.00;99.90;;;;;;7123141;19;20309;-86
2023/03/16 02:27:41;;;;;;;1.30;1.30;;;-1.10;99.90;;;;;;7142875;19;20275;-88
2023/03/16 02:30:11;;;;;;;2.30;1.65;;;-1.20;99.90;;;;;;7138198;19;20286;-88
2023/03/16 02:32:45;;;;;;;2.38;1.73;;;-1.20;99.90;;;;;;7144466;19;20810;-91
2023/03/16 02:35:11;;;;;;;1.50;1.40;;;-1.20;99.90;;;;;;7114017;19;20360;-85
2023/03/16 02:37:38;;;;;;;2.13;1.60;;;-1.30;99.90;;;;;;7114523;19;20309;-84
2023/03/16 02:40:34;;;;;;;2.38;1.80;;;-1.30;99.90;;;;;;7193674;19;20321;-90
2023/03/16 02:43:08;;;;;;;2.25;1.60;;;-1.30;99.90;;;;;;7037558;19;2004507;-88
2023/03/16 02:45:39;;;;;;;1.80;1.70;;;-1.30;99.90;;;;;;7179827;19;20313;-87
2023/03/16 02:48:08;;;;;;;4.07;1.75;;;-1.30;99.90;;;;;;7115659;19;20377;-93
2023/03/16 02:50:33;;;;;;;2.15;1.95;;;-1.40;99.90;;;;;;7095150;19;20334;-83
2023/03/16 02:52:59;;;;;;;2.13;1.92;;;-1.50;99.90;;;;;;7149374;19;20308;-90
2023/03/16 02:55:25;;;;;;;3.17;1.60;;;-1.50;99.90;;;;;;7113965;19;20322;-81
2023/03/16 02:57:51;;;;;;;2.22;1.80;;;-1.50;99.90;;;;;;7114851;19;20336;-88
2023/03/16 03:00:18;;;;;;;2.30;1.60;;;-1.50;99.90;;;;;;7117778;19;20312;-89
2023/03/16 03:02:45;;;;;;;2.78;1.90;;;-1.50;99.90;;;;;;7145342;19;20315;-87
2023/03/16 03:05:11;;;;;;;2.33;1.83;;;-1.50;99.90;;;;;;7096099;19;20933;-82
2023/03/16 03:07:37;;;;;;;2.05;1.85;;;-1.50;99.90;;;;;;7116520;19;20348;-90
2023/03/16 03:10:05;;;;;;;3.28;1.98;;;-1.50;99.90;;;;;;7137420;19;20357;-85
2023/03/16 03:12:32;;;;;;;3.55;2.05;;;-1.60;99.90;;;;;;7158132;19;20305;-90
2023/03/16 03:14:58;;;;;;;3.30;2.20;;;-1.60;99.90;;;;;;7108408;19;20366;-90
2023/03/16 03:17:28;;;;;;;4.03;1.83;;;-1.60;99.90;;;;;;7113586;19;20350;-83
2023/03/16 03:19:56;;;;;;;2.83;2.00;;;-1.60;99.90;;;;;;7089728;19;20336;-86
2023/03/16 03:22:22;;;;;;;1.83;1.70;;;-1.70;99.90;;;;;;7155698;19;20324;-83
2023/03/16 03:24:47;;;;;;;2.47;2.10;;;-1.70;99.90;;;;;;7117734;19;20349;-85
2023/03/16 03:27:13;;;;;;;3.57;2.00;;;-1.70;99.90;;;;;;7093875;19;20338;-81
2023/03/16 03:29:39;;;;;;;2.30;2.00;;;-1.70;99.90;;;;;;7171963;19;20324;-83
2023/03/16 03:32:05;;;;;;;2.10;1.70;;;-1.70;99.90;;;;;;7109820;19;20353;-88
2023/03/16 03:34:31;;;;;;;4.90;2.00;;;-1.70;99.90;;;;;;7095799;19;20324;-88
2023/03/16 03:36:57;;;;;;;3.45;2.08;;;-1.80;99.90;;;;;;7096632;19;20343;-85
2023/03/16 03:39:23;;;;;;;3.30;2.07;;;-1.80;99.90;;;;;;7177807;19;20297;-83
2023/03/16 03:41:53;;;;;;;4.05;1.90;;;-1.80;99.90;;;;;;7112791;19;20329;-84
2023/03/16 03:44:20;;;;;;;1.70;1.60;;;-1.80;99.90;;;;;;7091404;19;20825;-84
2023/03/16 03:46:47;;;;;;;3.67;2.13;;;-1.80;99.90;;;;;;7157218;19;20387;-86
2023/03/16 03:49:12;;;;;;;2.17;1.98;;;-1.80;99.90;;;;;;7109522;19;20333;-80
2023/03/16 03:51:39;;;;;;;2.30;2.00;;;-1.80;99.90;;;;;;7095151;19;20336;-82
2023/03/16 03:54:09;;;;;;;2.80;1.90;;;-1.80;99.90;;;;;;7093742;19;20348;-83
2023/03/16 03:56:56;;;;;;;2.40;1.90;;;-1.90;99.90;;;;;;7093779;19;20382;-80
2023/03/16 03:59:22;;;;;;;2.10;1.90;;;-1.80;99.90;;;;;;7073675;19;20336;-80
2023/03/16 04:02:00;;;;;;;2.95;2.28;;;-1.80;99.90;;;;;;7128091;19;20770;-81
2023/03/16 04:04:36;;;;;;;5.22;2.03;;;-1.70;99.90;;;;;;7119890;19;20328;-79
2023/03/16 04:07:02;;;;;;;4.95;3.10;;;-1.70;99.90;;;;;;7073362;19;21871;-84
2023/03/16 04:09:28;;;;;;;3.97;3.58;;;-1.80;99.90;;;;;;7114602;19;20705;-83
2023/03/16 04:11:56;;;;;;;7.22;5.30;;;-1.70;99.90;;;;;;7155394;19;20363;-86
2023/03/16 04:14:22;;;;;;;3.30;2.58;;;-1.80;99.90;;;;;;7126143;19;20402;-77
2023/03/16 04:16:48;;;;;;;3.28;2.10;;;-1.80;99.90;;;;;;7094067;19;20346;-83
2023/03/16 04:19:14;;;;;;;2.75;1.90;;;-1.80;99.90;;;;;;7069743;19;20329;-82
2023/03/16 04:21:42;;;;;;;2.60;2.13;;;-1.80;99.90;;;;;;7081271;19;20394;-79
2023/03/16 04:24:08;;;;;;;2.17;1.95;;;-1.80;99.90;;;;;;7161512;19;20421;-83
2023/03/16 04:26:35;;;;;;;3.33;2.15;;;-1.90;99.90;;;;;;7082388;19;20321;-83
2023/03/16 04:29:02;;;;;;;2.47;2.25;;;-1.80;99.90;;;;;;7081254;19;20345;-81
2023/03/16 04:31:29;;;;;;;2.65;2.38;;;-1.80;99.90;;;;;;7137988;19;20824;-77
2023/03/16 04:33:55;;;;;;;2.83;2.15;;;-1.80;99.90;;;;;;7128686;19;20353;-80
2023/03/16 04:36:24;;;;;;;8.07;5.43;;;-1.80;99.90;;;;;;7128505;19;20333;-78
2023/03/16 04:38:51;;;;;;;2.58;2.17;;;-1.80;99.90;;;;;;7075984;19;20348;-80
2023/03/16 04:41:16;;;;;;;3.30;2.33;;;-1.80;99.90;;;;;;7137613;19;20715;-78
2023/03/16 04:44:11;;;;;;;3.40;2.50;;;-1.80;99.90;;;;;;6999846;19;2004190;-80
2023/03/16 04:46:37;;;;;;;3.40;2.20;;;-1.80;99.90;;;;;;7094984;19;20313;-79
2023/03/16 04:49:08;;;;;;;2.50;2.17;;;-1.70;99.90;;;;;;7071771;19;20735;-77
2023/03/16 04:51:36;;;;;;;3.87;2.67;;;-1.80;99.90;;;;;;7116389;19;20357;-76
2023/03/16 04:54:07;;;;;;;4.82;2.35;;;-1.80;99.90;;;;;;7004240;19;2004322;-79
2023/03/16 04:56:40;;;;;;;3.63;2.40;;;-1.80;99.90;;;;;;7114667;19;20335;-77
2023/03/16 04:59:09;;;;;;;4.28;2.58;;;-1.80;99.90;;;;;;7116620;19;20986;-82
2023/03/16 05:01:50;;;;;;;3.08;2.50;;;-1.80;99.90;;;;;;7043002;19;2004404;-90
2023/03/16 05:04:16;;;;;;;2.87;2.50;;;-1.80;99.90;;;;;;7098658;19;20286;-93
2023/03/16 05:06:44;;;;;;;2.80;2.30;;;-1.80;99.90;;;;;;7073510;19;20308;-84
2023/03/16 05:09:12;;;;;;;2.97;2.30;;;-1.80;99.90;;;;;;7073246;19;20332;-81
2023/03/16 05:11:39;;;;;;;3.58;2.35;;;-1.80;99.90;;;;;;7070994;19;20854;-76
2023/03/16 05:14:07;;;;;;;3.97;2.33;;;-1.80;99.90;;;;;;7104751;19;20316;-84
2023/03/16 05:16:44;;;;;;;4.32;2.55;;;-1.80;99.90;;;;;;7064900;19;2004266;-80
2023/03/16 05:19:09;;;;;;;3.47;2.60;;;-1.80;99.90;;;;;;7109530;19;20415;-76
2023/03/16 05:21:37;;;;;;;3.78;2.50;;;-1.80;99.90;;;;;;7077530;19;20365;-82
2023/03/16 05:24:08;;;;;;;3.30;2.60;;;-1.80;99.90;;;;;;7092799;19;20300;-78
2023/03/16 05:26:36;;;;;;;2.42;2.22;;;-1.80;99.90;;;;;;7089971;19;20308;-80
2023/03/16 05:29:04;;;;;;;3.40;2.45;;;-1.80;99.90;;;;;;7167373;19;20320;-81
2023/03/16 05:31:33;;;;;;;4.50;2.58;;;-1.70;99.90;;;;;;7109487;19;20313;-78
2023/03/16 05:34:01;;;;;;;3.33;2.75;;;-1.70;99.90;;;;;;7069796;19;20326;-80
2023/03/16 05:36:27;;;;;;;9.25;5.60;;;-1.70;99.90;;;;;;7070859;19;20336;-79
2023/03/16 05:38:59;;;;;;;4.53;3.40;;;-1.60;99.90;;;;;;7090347;19;20343;-83
2023/03/16 05:41:30;;;;;;;5.10;3.65;;;-1.70;99.90;;;;;;7128347;19;20311;-82
2023/03/16 05:44:32;;;;;;;4.22;3.00;;;-1.60;99.90;;;;;;7138744;19;20856;-78
2023/03/16 05:47:12;;;;;;;3.53;3.10;;;-1.60;99.90;;;;;;6974273;19;2004259;-83
2023/03/16 05:49:43;;;;;;;5.20;2.87;;;-1.50;99.90;;;;;;7109991;19;20297;-85
2023/03/16 05:52:19;;;;;;;4.78;3.20;;;-1.60;99.90;;;;;;7025975;19;2004304;-81
2023/03/16 05:54:44;;;;;;;3.78;3.20;;;-1.50;99.90;;;;;;7149085;19;20328;-79
2023/03/16 05:57:10;;;;;;;4.83;3.13;;;-1.50;99.90;;;;;;7094427;19;20817;-76
2023/03/16 05:59:37;;;;;;;4.43;2.83;;;-1.50;99.90;;;;;;7070868;19;20372;-78
2023/03/16 06:02:03;;;;;;;3.60;3.13;;;-1.40;99.90;;;;;;7090543;19;20338;-79
2023/03/16 06:04:30;;;;;;;4.88;3.47;;;-1.40;99.90;;;;;;7143135;19;20405;-78
2023/03/16 06:06:57;;;;;;;5.67;3.27;;;-1.40;99.90;;;;;;7069846;19;20473;-86
2023/03/16 06:09:26;;;;;;;4.70;3.28;;;-1.30;99.90;;;;;;7067215;19;20301;-79
2023/03/16 06:11:52;;;;;;;5.10;3.43;;;-1.30;99.90;;;;;;7088690;19;20672;-77
2023/03/16 06:14:18;;;;;;;5.30;3.47;;;-1.30;99.90;;;;;;7128025;19;20357;-76
2023/03/16 06:16:45;;;;;;;7.53;3.80;;;-1.30;99.90;;;;;;7084538;19;20333;-77
2023/03/16 06:19:11;;;;;;;5.07;4.32;;;-1.20;99.90;;;;;;7066303;19;20324;-78
2023/03/16 06:21:37;;;;;;;5.32;4.20;;;-1.20;99.90;;;;;;7065617;19;20637;-85
2023/03/16 06:24:08;;;;;;;4.93;4.23;;;-1.10;99.90;;;;;;7102469;19;21118;-80
2023/03/16 06:26:34;;;;;;;5.20;4.38;;;-1.10;99.90;;;;;;7149374;19;20365;-81
2023/03/16 06:29:01;;;;;;;6.25;4.85;;;-1.00;99.90;;;;;;7060142;19;20326;-86
2023/03/16 06:31:27;;;;;;;8.07;4.32;;;-0.90;99.90;;;;;;7062826;19;20312;-86
2023/03/16 06:33:53;;;;;;;4.20;3.80;;;-1.00;99.90;;;;;;7138576;19;20356;-80
2023/03/16 06:36:19;;;;;;;6.07;4.25;;;-0.90;99.90;;;;;;7108220;19;20285;-83
2023/03/16 06:38:49;;;;;;;4.00;3.50;;;-0.90;99.90;;;;;;7066606;19;20437;-76
2023/03/16 06:41:41;;;;;;;5.38;3.72;;;-0.90;99.90;;;;;;7012701;19;2004465;-78
2023/03/16 06:44:07;;;;;;;5.40;3.92;;;-0.80;99.90;;;;;;7134124;19;20297;-83
2023/03/16 06:46:37;;;;;;;7.10;4.15;;;-0.80;99.90;;;;;;7076041;19;20342;-78
2023/03/16 06:49:03;;;;;;;4.22;3.60;;;-0.70;99.90;;;;;;7068437;19;20345;-78
2023/03/16 06:51:30;;;;;;;5.75;4.18;;;-0.60;99.90;;;;;;7082360;19;20305;-79
2023/03/16 06:53:56;;;;;;;8.47;4.37;;;-0.50;99.90;;;;;;7130586;19;20321;-81
2023/03/16 06:56:22;;;;;;;5.18;3.72;;;-0.50;99.90;;;;;;7065171;19;20306;-78
2023/03/16 06:58:48;;;;;;;5.22;3.58;;;-0.40;99.90;;;;;;7111175;19;20438;-80
2023/03/16 07:01:14;;;;;;;6.30;3.70;;;-0.30;99.90;;;;;;7113009;19;20320;-80
2023/03/16 07:03:40;;;;;;;6.30;3.58;;;-0.30;99.90;;;;;;7093160;19;20294;-79
2023/03/16 07:06:15;;;;;;;5.07;3.80;;;-0.20;99.90;;;;;;7129104;19;20445;-81
2023/03/16 07:08:42;;;;;;;5.70;3.73;;;-0.10;99.90;;;;;;7068604;19;20328;-79
2023/03/16 07:11:08;;;;;;;5.87;3.90;;;-0.10;99.90;;;;;;7068624;19;20336;-83
2023/03/16 07:13:35;;;;;;;5.32;4.03;;;0.00;99.90;;;;;;7116365;19;20316;-79
2023/03/16 07:16:01;;;;;;;4.45;3.60;;;0.10;99.90;;;;;;7102719;19;20350;-75
2023/03/16 07:18:26;;;;;;;5.43;4.25;;;0.20;99.90;;;;;;7087689;19;20324;-77
2023/03/16 07:20:53;;;;;;;7.27;3.57;;;0.30;99.90;;;;;;7071286;19;20417;-76
2023/03/16 07:23:21;;;;;;;5.40;3.80;;;0.40;99.90;;;;;;7118938;19;20296;-75
2023/03/16 07:25:47;;;;;;;5.80;4.00;;;0.50;99.90;;;;;;7107060;19;20325;-86
2023/03/16 07:28:15;;;;;;;6.00;4.10;;;0.50;99.90;;;;;;7066957;19;20329;-82
2023/03/16 07:30:41;;;;;;;6.43;4.45;;;0.60;99.90;;;;;;7105994;19;20336;-81
2023/03/16 07:33:08;;;;;;;6.20;4.70;;;0.70;99.90;;;;;;7131308;19;20312;-77
2023/03/16 07:35:35;;;;;;;4.97;4.13;;;0.70;99.90;;;;;;7073223;19;20986;-76
2023/03/16 07:38:01;;;;;;;6.60;4.97;;;0.80;99.90;;;;;;7067387;19;20436;-77
2023/03/16 07:40:27;;;;;;;7.53;4.97;;;1.00;99.90;;;;;;7112813;19;20323;-82
2023/03/16 07:42:57;;;;;;;6.40;4.53;;;1.00;99.90;;;;;;7121009;19;20309;-78
2023/03/16 07:45:30;;;;;;;5.95;3.92;;;1.10;99.90;;;;;;7109007;19;20282;-77
2023/03/16 07:47:56;;;;;;;5.35;4.03;;;1.20;99.90;;;;;;7065114;19;20351;-77
2023/03/16 07:50:33;;;;;;;4.88;3.53;;;1.30;99.90;;;;;;7090160;19;20369;-79
2023/03/16 07:52:58;;;;;;;6.40;3.70;;;1.50;99.90;;;;;;7089813;19;20317;-78
2023/03/16 07:55:24;;;;;;;8.40;5.70;;;1.50;99.90;;;;;;7130449;19;20301;-87
2023/03/16 07:57:51;;;;;;;9.57;4.35;;;1.60;99.90;;;;;;7066066;19;20332;-78
2023/03/16 08:00:24;;;;;;;4.60;3.73;;;1.80;99.90;;;;;;7066370;19;20312;-77
2023/03/16 08:02:51;;;;;;;5.32;4.22;;;1.80;99.90;;;;;;7069492;19;20966;-86
2023/03/16 08:05:16;;;;;;;5.18;3.95;;;1.80;99.90;;;;;;7117971;19;20677;-79
2023/03/16 08:07:48;;;;;;;4.63;3.75;;;2.00;99.90;;;;;;7145821;19;21230;-85
2023/03/16 08:10:21;;;;;;;4.72;3.60;;;2.10;99.90;;;;;;7144606;19;20312;-87
2023/03/16 08:12:56;;;;;;;4.38;3.33;;;2.20;99.90;;;;;;7135255;19;20317;-79
2023/03/16 08:15:21;;;;;;;4.93;3.00;;;2.30;99.90;;;;;;7076852;19;20336;-80
2023/03/16 08:17:49;;;;;;;6.63;3.47;;;2.40;99.90;;;;;;7075391;19;20328;-77
2023/03/16 08:20:21;;;;;;;3.77;3.20;;;2.50;99.90;;;;;;7077481;19;20724;-79
2023/03/16 08:22:48;;;;;;;4.93;3.45;;;2.60;99.90;;;;;;7159730;19;20296;-83
2023/03/16 08:25:18;;;;;;;7.97;3.10;;;2.80;99.90;;;;;;7144829;19;20339;-79
2023/03/16 08:27:52;;;;;;;7.22;3.28;;;2.80;99.90;;;;;;7169667;19;20346;-83
2023/03/16 08:30:17;;;;;;;5.72;2.97;;;2.90;99.90;;;;;;7074961;19;20305;-83
2023/03/16 08:32:50;;;;;;;4.07;2.78;;;3.00;99.90;;;;;;7117995;19;20794;-83
2023/03/16 08:35:16;;;;;;;5.33;2.70;;;3.10;99.90;;;;;;7077870;19;20421;-80
2023/03/16 08:37:43;;;;;;;2.95;2.65;;;3.20;99.90;;;;;;7087229;19;20706;-81
2023/03/16 08:40:12;;;;;;;3.17;2.53;;;3.20;99.90;;;;;;7165408;19;20293;-79
2023/03/16 08:42:40;;;;;;;3.28;2.63;;;3.30;99.90;;;;;;7137030;19;20340;-82
2023/03/16 08:45:08;;;;;;;3.20;2.50;;;3.50;99.90;;;;;;7096295;19;20860;-85
2023/03/16 08:47:35;;;;;;;3.75;2.50;;;3.60;99.90;;;;;;7114927;19;20348;-84
2023/03/16 08:50:02;;;;;;;4.45;2.60;;;3.70;99.90;;;;;;7135963;19;20428;-87
2023/03/16 08:52:28;;;;;;;3.55;2.65;;;3.80;99.90;;;;;;7080532;19;20325;-87
2023/03/16 08:54:55;;;;;;;2.70;2.30;;;4.00;99.90;;;;;;7074310;19;20340;-81
2023/03/16 08:57:22;;;;;;;2.40;2.20;;;4.10;99.90;;;;;;7111041;19;20379;-82
2023/03/16 08:59:47;;;;;;;2.47;2.17;;;4.20;99.90;;;;;;7137769;19;20353;-86
2023/03/16 09:02:13;;;;;;;3.30;2.58;;;4.20;99.90;;;;;;7072471;19;20317;-82
2023/03/16 09:04:39;;;;;;;3.03;2.20;;;4.30;99.90;;;;;;7073807;19;20376;-76
2023/03/16 09:07:05;;;;;;;3.90;2.40;;;4.50;99.90;;;;;;7080650;19;20324;-80
2023/03/16 09:09:31;;;;;;;2.53;2.00;;;4.60;99.90;;;;;;7136435;19;20477;-81
2023/03/16 09:11:57;;;;;;;3.00;2.28;;;4.70;99.90;;;;;;7074187;19;20345;-79
2023/03/16 09:14:23;;;;;;;3.65;2.08;;;4.80;99.90;;;;;;7095238;19;20354;-86
2023/03/16 09:16:49;;;;;;;2.20;2.00;;;4.80;99.90;;;;;;7098299;19;20329;-81
2023/03/16 09:19:14;;;;;;;3.37;2.07;;;5.00;99.90;;;;;;7134864;19;20843;-79
2023/03/16 09:21:40;;;;;;;2.80;2.00;;;5.00;99.90;;;;;;7114432;19;20328;-84
2023/03/16 09:24:07;;;;;;;4.53;2.13;;;5.20;99.90;;;;;;7073800;19;20430;-78
2023/03/16 09:26:34;;;;;;;2.53;1.90;;;5.30;99.90;;;;;;7139087;19;20328;-80
2023/03/16 09:29:01;;;;;;;2.30;2.00;;;5.40;99.90;;;;;;7137446;19;20308;-76
2023/03/16 09:31:26;;;;;;;4.03;2.40;;;5.40;99.90;;;;;;7115580;19;21223;-82
2023/03/16 09:33:52;;;;;;;1.93;1.73;;;5.60;99.90;;;;;;7136927;19;20332;-82
2023/03/16 09:36:17;;;;;;;6.25;2.00;;;5.70;99.90;;;;;;7114338;19;20316;-78
2023/03/16 09:38:43;;;;;;;1.97;1.50;;;5.70;99.90;;;;;;7164933;19;20416;-78
2023/03/16 09:41:39;;;;;;;3.90;1.67;;;5.80;99.90;;;;;;7070219;19;20832;-82
2023/03/16 09:44:25;;;;;;;3.17;1.63;;;5.90;99.90;;;;;;6967962;19;2004610;-83
2023/03/16 09:46:50;;;;;;;4.00;1.70;;;5.90;99.90;;;;;;7135257;19;20335;-83
2023/03/16 09:49:18;;;;;;;2.92;2.00;;;6.00;99.90;;;;;;7070962;19;20328;-77
2023/03/16 09:51:51;;;;;;;2.57;1.80;;;6.10;99.90;;;;;;7112329;19;20293;-86
2023/03/16 09:54:26;;;;;;;2.67;1.70;;;6.30;99.90;;;;;;7024715;19;2004479;-89
2023/03/16 09:56:52;;;;;;;2.58;1.50;;;6.40;99.90;;;;;;7022706;19;2004363;-81
2023/03/16 09:59:17;;;;;;;3.17;1.88;;;6.50;99.90;;;;;;7089850;19;20341;-82
2023/03/16 10:02:04;;;;;;;2.07;1.57;;;6.50;99.90;;;;;;7113532;19;20392;-84
2023/03/16 10:04:49;;;;;;;4.75;1.65;;;6.60;99.90;;;;;;7131057;19;20258;-82
2023/03/16 10:07:40;;;;;;;3.47;1.60;;;6.70;99.90;;;;;;6971010;19;2005003;-82
2023/03/16 10:10:34;;;;;;;3.28;1.98;;;6.90;99.90;;;;;;7105669;19;21126;-79
2023/03/16 10:13:00;;;;;;;1.50;1.38;;;6.90;99.90;;;;;;7012028;19;2004502;-80
2023/03/16 10:15:28;;;;;;;3.38;1.70;;;6.90;99.90;;;;;;7074452;19;20882;-82
2023/03/16 10:18:05;;;;;;;1.55;1.38;;;6.90;99.90;;;;;;7117443;19;20321;-84
2023/03/16 10:20:32;;;;;;;1.83;1.30;;;6.90;99.90;;;;;;7003621;19;2004429;-81
2023/03/16 10:23:00;;;;;;;5.22;1.83;;;6.90;99.90;;;;;;7113930;19;20284;-79
2023/03/16 10:25:38;;;;;;;2.10;1.60;;;7.00;99.90;;;;;;7090889;19;20377;-79
2023/03/16 10:28:03;;;;;;;1.33;1.23;;;7.10;99.90;;;;;;7099167;19;20390;-85
2023/03/16 10:30:36;;;;;;;1.30;1.20;;;7.30;99.90;;;;;;7073798;19;20412;-84
2023/03/16 10:33:25;;;;;;;1.48;1.38;;;7.40;99.90;;;;;;7073808;19;20350;-82
2023/03/16 10:36:09;;;;;;;1.52;1.15;;;7.50;99.90;;;;;;7116738;19;20298;-78
2023/03/16 10:38:49;;;;;;;1.77;1.27;;;7.60;99.90;;;;;;7014582;19;2004568;-83
2023/03/16 10:41:20;;;;;;;1.60;1.20;;;7.90;99.90;;;;;;6967606;19;2004337;-80
2023/03/16 10:44:15;;;;;;;3.72;1.48;;;8.00;99.90;;;;;;7085690;19;20301;-81
2023/03/16 10:46:44;;;;;;;3.25;1.63;;;8.30;99.90;;;;;;7123643;19;20337;-77
2023/03/16 10:49:40;;;;;;;3.67;1.70;;;8.40;99.90;;;;;;7078373;19;20358;-77
2023/03/16 10:52:36;;;;;;;2.15;1.73;;;8.50;99.90;;;;;;6977153;19;2004481;-80
2023/03/16 10:55:09;;;;;;;2.38;1.50;;;8.70;99.90;;;;;;7055292;19;2004342;-77
2023/03/16 10:57:35;;;;;;;1.77;1.33;;;8.90;99.90;;;;;;7170305;19;20315;-78
2023/03/16 11:00:27;;;;;;;3.88;1.33;;;9.10;99.90;;;;;;7083768;19;20302;-78
2023/03/16 11:02:54;;;;;;;1.73;1.15;;;9.10;99.90;;;;;;6897528;19;2004498;-81
2023/03/16 11:05:27;;;;;;;2.28;1.45;;;9.40;99.90;;;;;;7150921;19;20780;-79
2023/03/16 11:08:13;;;;;;;2.83;1.20;;;9.00;99.90;;;;;;7100694;19;20328;-78
2023/03/16 11:10:47;;;;;;;1.75;1.13;;;9.20;99.90;;;;;;6970857;19;2025390;-79
2023/03/16 11:13:17;;;;;;;3.37;1.23;;;9.40;99.90;;;;;;7092867;19;20325;-78
2023/03/16 11:16:15;;;;;;;1.17;1.00;;;9.60;99.90;;;;;;7069716;19;20340;-77
2023/03/16 11:18:43;;;;;;;2.40;1.30;;;9.80;99.90;;;;;;7007862;19;2005001;-78
2023/03/16 11:21:16;;;;;;;3.75;1.27;;;9.80;99.90;;;;;;7123236;19;20970;-80
2023/03/16 11:23:47;;;;;;;3.15;1.33;;;9.90;99.90;;;;;;7176364;19;20329;-79
2023/03/16 11:26:16;;;;;;;1.73;1.17;;;10.20;99.90;;;;;;7069652;19;20365;-78
2023/03/16 11:28:44;;;;;;;2.85;1.17;;;10.40;99.90;;;;;;7090169;19;21242;-77
2023/03/16 11:31:31;;;;;;;1.67;1.10;;;10.50;99.90;;;;;;7085453;19;20324;-79
2023/03/16 11:33:57;;;;;;;4.43;1.00;;;10.70;99.90;;;;;;7070539;19;20914;-78
2023/03/16 11:36:31;;;;;;;1.48;1.30;;;11.20;99.90;;;;;;7092334;19;20316;-78
2023/03/16 11:39:19;;;;;;;1.92;1.35;;;11.30;99.90;;;;;;7070193;19;21050;-78
2023/03/16 11:42:06;;;;;;;4.13;2.13;;;11.40;99.90;;;;;;7084125;19;20317;-81
2023/03/16 11:44:42;;;;;;;2.73;1.60;;;11.10;99.90;;;;;;6969999;19;2004650;-79
2023/03/16 11:47:34;;;;;;;2.63;1.20;;;10.60;99.90;;;;;;7073167;19;20308;-77
2023/03/16 11:50:18;;;;;;;2.57;1.40;;;10.60;99.90;;;;;;7119972;19;20324;-79
2023/03/16 11:53:04;;;;;;;1.93;1.07;;;10.80;99.80;;;;;;6995747;19;2004204;-79
2023/03/16 11:55:38;;;;;;;1.00;1.00;;;10.60;98.90;;;;;;7094055;19;20344;-79
2023/03/16 11:58:27;;;;;;;2.33;1.10;;;10.90;99.20;;;;;;7113358;19;20374;-78
2023/03/16 12:01:11;;;;;;;3.78;1.27;;;11.40;98.40;;;;;;7026930;19;2004529;-79
2023/03/16 12:04:01;;;;;;;3.27;1.10;;;11.20;97.90;;;;;;7013682;19;2004162;-78
2023/03/16 12:06:50;;;;;;;1.92;1.15;;;11.70;96.90;;;;;;7104713;19;20955;-80
2023/03/16 12:09:44;;;;;;;2.00;1.20;;;11.90;99.60;;;;;;6967051;19;2004518;-79
2023/03/16 12:12:30;;;;;;;1.20;1.10;;;12.20;98.20;;;;;;7151047;19;20345;-78
2023/03/16 12:15:09;;;;;;;1.92;1.17;;;12.50;98.70;;;;;;6988921;19;2004397;-79
2023/03/16 12:17:36;;;;;;;2.00;1.20;;;12.50;97.70;;;;;;7066861;19;20340;-80
2023/03/16 12:20:04;;;;;;;2.13;1.20;;;12.40;97.00;;;;;;7086651;19;20420;-78
2023/03/16 12:22:38;;;;;;;0.80;0.80;;;13.00;99.90;;;;;;7146184;19;20334;-80
2023/03/16 12:25:04;;;;;;;0.93;0.90;;;13.10;97.60;;;;;;7111080;19;20364;-79
2023/03/16 12:27:35;;;;;;;2.03;1.00;;;13.40;94.30;;;;;;7067852;19;20322;-78
2023/03/16 12:30:03;;;;;;;0.80;0.80;;;13.40;95.80;;;;;;7091551;19;20434;-80
2023/03/16 12:32:41;;;;;;;0.90;0.90;;;13.20;94.40;;;;;;7067144;19;20901;-79
2023/03/16 12:35:20;;;;;;;0.90;0.90;;;13.60;94.70;;;;;;7067225;19;20333;-79
2023/03/16 12:38:14;;;;;;;0.80;0.80;;;13.90;87.50;;;;;;7067899;19;21155;-79
2023/03/16 12:40:45;;;;;;;0.85;0.80;;;14.10;93.10;;;;;;6984034;19;2019634;-80
2023/03/16 12:43:23;;;;;;;0.85;0.85;;;14.40;91.30;;;;;;7092062;19;20328;-80
2023/03/16 12:46:23;;;;;;;1.00;0.90;;;14.40;90.60;;;;;;7006757;19;2004671;-78
2023/03/16 12:48:53;;;;;;;1.13;0.70;;;14.70;91.00;;;;;;7025706;19;2004379;-78
2023/03/16 12:51:18;;;;;;;0.80;0.80;;;13.80;75.10;;;;;;7116464;19;20321;-78
2023/03/16 12:53:50;;;;;;;1.10;0.80;;;13.90;81.70;;;;;;7091486;19;20382;-79
2023/03/16 12:56:29;;;;;;;1.33;0.93;;;13.80;82.30;;;;;;7069345;19;20336;-80
2023/03/16 12:58:56;;;;;;;0.90;0.90;;;13.50;73.50;;;;;;7131441;19;20338;-78
2023/03/16 13:01:27;;;;;;;0.70;0.70;;;13.50;80.30;;;;;;7110405;19;20317;-76
2023/03/16 13:04:11;;;;;;;1.10;0.90;;;13.60;76.50;;;;;;7066210;19;20831;-77
2023/03/16 13:06:40;;;;;;;1.40;1.00;;;14.00;72.70;;;;;;7074851;19;20321;-78